Terminal Aerodrome Forecast
Issued by NWS Wilmington, OH

Home | Current Version | Previous Version | Text Only | Print | Product List | Glossary On
Versions: 1 2 3 4 5 6 7 8 9 10 11 12 13 14 15 16 17 18 19 20 21 22 23 24
000
FTUS41 KILN 250500
TAFCVG
TAF
KCVG 250532Z 2506/2612 13012KT P6SM BKN100 OVC250
     FM250800 15011KT 5SM -SHRA BKN060 OVC100
      TEMPO 2509/2511 3SM -SHRA OVC025
     FM251200 22010KT P6SM VCTS BKN012 OVC022CB
      TEMPO 2514/2516 27011G24KT 5SM -SHRA BKN008 OVC015
     FM251600 30017G27KT P6SM BKN015 OVC030
     FM251900 30015G25KT P6SM SCT030
     FM252300 29010KT P6SM SKC
     FM260100 23004KT P6SM SKC=

USA.gov is the U.S. government's official web portal to all federal, state and local government web resources and services.